Time;durP1;ratioP1;P1;durP2;ratioP2;P2;SDS_P1;SDS_P2;PMS_P1;PMS_P2;Temp;Humidity;BMP_temperature;BMP_pressure;BME280_temperature;BME280_humidity;BME280_pressure;Samples;Min_cycle;Max_cycle;Signal;HPM_P1;HPM_P2
2023/05/13 00:00:37;;;;;;;12.07;6.60;;;;;;;12.14;100.00;100730.03;5107800;28;20154;-63
2023/05/13 00:03:02;;;;;;;7.15;6.45;;;;;;;12.22;100.00;100736.44;5108117;28;20539;-63
2023/05/13 00:05:28;;;;;;;8.05;6.68;;;;;;;12.24;100.00;100729.09;5107668;28;20028;-63
2023/05/13 00:07:53;;;;;;;10.90;7.28;;;;;;;12.25;100.00;100738.00;5107994;28;20073;-63
2023/05/13 00:10:19;;;;;;;7.82;6.68;;;;;;;12.04;100.00;100713.84;5107816;28;20020;-63
2023/05/13 00:12:45;;;;;;;6.95;6.13;;;;;;;12.18;100.00;100731.44;5107867;28;20122;-63
2023/05/13 00:15:10;;;;;;;10.10;7.00;;;;;;;12.12;100.00;100722.09;5107624;28;20103;-63
2023/05/13 00:17:36;;;;;;;8.77;7.18;;;;;;;12.12;100.00;100732.84;5107846;28;20023;-63
2023/05/13 00:20:05;;;;;;;7.53;6.72;;;;;;;12.06;100.00;100730.69;5105058;28;20035;-63
2023/05/13 00:22:31;;;;;;;8.90;6.63;;;;;;;12.12;100.00;100742.78;5107867;28;20039;-68
2023/05/13 00:24:56;;;;;;;7.80;7.00;;;;;;;12.08;100.00;100744.88;5108102;28;20218;-67
2023/05/13 00:27:21;;;;;;;8.27;6.68;;;;;;;12.10;100.00;100742.91;5108080;28;20027;-67
2023/05/13 00:29:47;;;;;;;10.23;6.82;;;;;;;12.11;100.00;100746.41;5108084;28;20056;-67
2023/05/13 00:32:12;;;;;;;7.30;6.53;;;;;;;12.08;100.00;100741.31;5108112;28;20068;-67
2023/05/13 00:34:38;;;;;;;7.35;6.55;;;;;;;12.16;100.00;100733.44;5107837;28;20039;-67
2023/05/13 00:37:03;;;;;;;9.90;7.28;;;;;;;12.03;100.00;100720.19;5108373;28;20035;-67
2023/05/13 00:39:29;;;;;;;7.53;6.65;;;;;;;12.10;100.00;100736.66;5111197;28;20107;-68
2023/05/13 00:41:55;;;;;;;9.20;6.60;;;;;;;12.02;100.00;100731.94;5105580;28;20034;-67
2023/05/13 00:44:20;;;;;;;10.07;6.13;;;;;;;12.06;100.00;100738.75;5112131;28;20702;-67
2023/05/13 00:46:46;;;;;;;8.18;6.65;;;;;;;11.88;100.00;100721.56;5111496;28;20051;-67
2023/05/13 00:49:11;;;;;;;7.72;6.88;;;;;;;12.02;100.00;100733.81;5110488;28;20031;-67
2023/05/13 00:51:37;;;;;;;10.07;6.43;;;;;;;11.93;100.00;100723.84;5111766;28;20033;-67
2023/05/13 00:54:03;;;;;;;8.75;7.05;;;;;;;11.95;100.00;100730.78;5111732;28;20114;-68
2023/05/13 00:56:29;;;;;;;6.63;6.03;;;;;;;11.90;100.00;100729.50;5111509;28;20077;-68
2023/05/13 00:58:54;;;;;;;8.07;6.43;;;;;;;11.90;100.00;100729.50;5111565;28;20023;-64
2023/05/13 01:01:37;;;;;;;10.30;7.13;;;;;;;11.96;100.00;100742.41;5111476;28;20110;-63
2023/05/13 01:04:41;;;;;;;6.80;6.15;;;;;;;11.98;100.00;100751.16;5111473;28;20501;-64
2023/05/13 01:07:26;;;;;;;10.00;6.65;;;;;;;11.97;100.00;100749.47;5110403;28;20043;-62
2023/05/13 01:10:13;;;;;;;8.93;6.65;;;;;;;11.96;100.00;100748.59;5111050;28;20024;-63
2023/05/13 01:12:42;;;;;;;8.73;6.32;;;;;;;11.90;100.00;100743.75;5094834;28;20084;-62
2023/05/13 01:15:11;;;;;;;10.48;7.50;;;;;;;11.91;100.00;100742.78;5110709;28;20033;-64
2023/05/13 01:17:46;;;;;;;7.80;7.00;;;;;;;11.94;100.00;100750.59;5110574;28;20459;-62
2023/05/13 01:20:11;;;;;;;10.48;6.70;;;;;;;11.92;100.00;100751.69;5110393;28;20039;-64
2023/05/13 01:22:37;;;;;;;6.97;6.22;;;;;;;11.94;100.00;100749.72;5110648;28;20027;-64
2023/05/13 01:25:02;;;;;;;10.48;7.00;;;;;;;11.93;100.00;100751.56;5110210;28;20046;-64
2023/05/13 01:27:28;;;;;;;7.47;6.40;;;;;;;11.82;100.00;100731.97;5110202;28;20472;-63
2023/05/13 01:29:54;;;;;;;9.55;7.18;;;;;;;11.83;100.00;100736.38;5110754;28;20279;-62
2023/05/13 01:32:21;;;;;;;8.73;6.70;;;;;;;11.96;100.00;100756.66;5091899;28;20102;-62
2023/05/13 01:34:49;;;;;;;9.32;6.97;;;;;;;12.01;100.00;100759.81;5110630;28;20063;-63
2023/05/13 01:37:15;;;;;;;8.13;6.72;;;;;;;11.73;100.00;100714.81;5110492;28;20027;-63
2023/05/13 01:39:41;;;;;;;9.77;6.38;;;;;;;11.94;100.00;100749.72;5110078;28;20465;-63
2023/05/13 01:42:06;;;;;;;8.50;6.35;;;;;;;11.90;100.00;100751.81;5110066;28;20483;-62
2023/05/13 01:44:32;;;;;;;8.77;6.95;;;;;;;11.91;100.00;100755.38;5109944;28;20037;-67
2023/05/13 01:46:57;;;;;;;8.05;6.55;;;;;;;11.76;100.00;100735.19;5109863;28;20046;-67
2023/05/13 01:49:23;;;;;;;7.45;6.70;;;;;;;11.69;100.00;100718.75;5109192;28;20050;-67
2023/05/13 01:51:48;;;;;;;8.27;6.38;;;;;;;11.72;100.00;100736.44;5100174;28;20045;-67
2023/05/13 01:54:14;;;;;;;9.43;6.78;;;;;;;11.89;100.00;100757.31;5109704;28;20096;-66
2023/05/13 01:56:39;;;;;;;9.90;6.40;;;;;;;11.87;100.00;100752.13;5109771;28;20027;-67
2023/05/13 01:59:05;;;;;;;8.57;6.40;;;;;;;11.86;100.00;100758.44;5109685;28;20096;-67
2023/05/13 02:01:30;;;;;;;6.50;5.70;;;;;;;11.85;100.00;100754.06;5109588;28;20054;-67
2023/05/13 02:03:58;;;;;;;11.82;7.32;;;;;;;11.78;100.00;100738.59;5109733;28;20042;-62
2023/05/13 02:06:24;;;;;;;7.07;6.38;;;;;;;11.87;100.00;100754.81;5109182;28;20063;-63
2023/05/13 02:08:49;;;;;;;9.27;6.13;;;;;;;11.77;100.00;100748.50;5109713;28;20491;-62
2023/05/13 02:11:15;;;;;;;7.93;6.57;;;;;;;11.84;100.00;100759.56;5109384;28;20107;-62
2023/05/13 02:13:41;;;;;;;6.78;5.90;;;;;;;11.85;100.00;100761.28;5109424;28;20023;-63
2023/05/13 02:16:06;;;;;;;7.20;6.38;;;;;;;11.84;100.00;100759.56;5109690;28;20027;-64
2023/05/13 02:18:32;;;;;;;6.57;5.88;;;;;;;11.72;100.00;100737.31;5109546;28;20110;-67
2023/05/13 02:20:57;;;;;;;8.68;6.65;;;;;;;11.79;100.00;100753.72;5109772;28;20051;-67
2023/05/13 02:23:23;;;;;;;6.85;5.82;;;;;;;11.83;100.00;100763.25;5109389;28;20040;-67
2023/05/13 02:25:48;;;;;;;7.78;6.03;;;;;;;11.68;100.00;100733.19;5109425;28;20048;-67
2023/05/13 02:28:13;;;;;;;7.88;6.25;;;;;;;11.65;100.00;100738.81;5109315;28;20098;-67
2023/05/13 02:30:40;;;;;;;6.80;6.10;;;;;;;11.67;100.00;100744.06;5109221;28;20023;-67
2023/05/13 02:33:06;;;;;;;7.93;6.18;;;;;;;11.67;100.00;100741.38;5109363;28;20410;-67
2023/05/13 02:35:31;;;;;;;8.27;6.50;;;;;;;11.75;100.00;100765.72;5108920;28;20019;-67
2023/05/13 02:37:57;;;;;;;8.25;6.15;;;;;;;11.60;100.00;100745.53;5109230;28;20024;-67
2023/05/13 02:40:23;;;;;;;6.97;6.28;;;;;;;11.67;100.00;100754.81;5109027;28;20032;-68
2023/05/13 02:42:48;;;;;;;7.80;6.35;;;;;;;11.66;100.00;100767.38;5109406;28;20029;-67
2023/05/13 02:45:14;;;;;;;7.05;6.18;;;;;;;11.58;100.00;100738.44;5109017;28;20119;-67
2023/05/13 02:47:39;;;;;;;6.13;5.50;;;;;;;11.71;100.00;100769.66;5109002;28;20032;-67
2023/05/13 02:50:06;;;;;;;7.88;6.13;;;;;;;11.66;100.00;100764.69;5108709;28;20039;-68
2023/05/13 02:52:34;;;;;;;6.85;6.15;;;;;;;11.63;100.00;100772.16;5102051;28;20022;-68
2023/05/13 02:55:03;;;;;;;8.68;6.55;;;;;;;11.54;100.00;100754.94;5108833;28;20031;-67
2023/05/13 02:57:28;;;;;;;8.18;6.13;;;;;;;11.57;100.00;100763.59;5108324;28;20086;-67
2023/05/13 02:59:54;;;;;;;7.22;5.85;;;;;;;11.68;100.00;100780.69;5108615;28;20118;-67
2023/05/13 03:02:19;;;;;;;8.93;6.30;;;;;;;11.65;100.00;100776.44;5106379;28;20027;-67
2023/05/13 03:04:45;;;;;;;8.80;6.07;;;;;;;11.58;100.00;100767.16;5108453;27;20551;-67
2023/05/13 03:07:10;;;;;;;8.00;6.60;;;;;;;11.63;100.00;100778.38;5104874;28;20027;-67
2023/05/13 03:09:39;;;;;;;7.93;6.18;;;;;;;11.57;100.00;100767.28;5108578;28;20127;-68
2023/05/13 03:12:05;;;;;;;8.77;6.15;;;;;;;11.39;100.00;100740.16;5108748;28;20027;-68
2023/05/13 03:14:33;;;;;;;11.18;6.43;;;;;;;11.67;100.00;100781.66;5108505;28;20723;-68
2023/05/13 03:16:59;;;;;;;7.68;6.60;;;;;;;11.66;100.00;100788.00;5101375;28;20024;-68
2023/05/13 03:19:24;;;;;;;6.57;5.70;;;;;;;11.61;100.00;100780.34;5104352;28;20042;-67
2023/05/13 03:21:50;;;;;;;7.18;5.75;;;;;;;11.66;100.00;100786.19;5108444;28;20645;-67
2023/05/13 03:24:15;;;;;;;7.72;6.07;;;;;;;11.61;100.00;100791.06;5108693;28;20032;-67
2023/05/13 03:26:40;;;;;;;8.43;6.55;;;;;;;11.50;100.00;100775.84;5105050;28;20039;-68
2023/05/13 03:29:06;;;;;;;7.80;6.20;;;;;;;11.55;100.00;100787.03;5108632;28;20320;-68
2023/05/13 03:31:31;;;;;;;11.98;7.15;;;;;;;11.57;100.00;100791.47;5105423;28;20076;-68
2023/05/13 03:33:57;;;;;;;6.93;6.18;;;;;;;11.61;100.00;100796.44;5108674;28;20042;-68
2023/05/13 03:36:22;;;;;;;7.15;5.93;;;;;;;11.60;100.00;100793.91;5108299;28;20027;-68
2023/05/13 03:38:48;;;;;;;9.25;7.15;;;;;;;11.64;100.00;100795.38;5107403;28;20032;-68
2023/05/13 03:41:16;;;;;;;11.07;6.97;;;;;;;11.57;100.00;100790.47;5107826;28;20088;-68
2023/05/13 03:43:42;;;;;;;9.48;7.00;;;;;;;11.59;100.00;100803.78;5107059;28;20422;-68
2023/05/13 03:46:07;;;;;;;8.10;6.40;;;;;;;11.63;100.00;100810.63;5107634;28;20019;-63
2023/05/13 03:48:33;;;;;;;9.05;7.47;;;;;;;11.60;100.00;100807.31;5089141;28;20032;-64
2023/05/13 03:50:58;;;;;;;10.95;7.10;;;;;;;11.62;100.00;100808.06;5108109;28;20108;-63
2023/05/13 03:53:24;;;;;;;8.45;7.07;;;;;;;11.61;100.00;100817.94;5107730;28;20031;-64
2023/05/13 03:55:49;;;;;;;7.75;6.82;;;;;;;11.62;100.00;100808.94;5107610;28;20023;-64
2023/05/13 03:58:16;;;;;;;7.55;6.53;;;;;;;11.64;100.00;100811.47;5107507;28;20047;-63
2023/05/13 04:00:45;;;;;;;9.38;7.05;;;;;;;11.55;100.00;100805.84;5107195;28;20081;-64
2023/05/13 04:03:10;;;;;;;10.20;7.18;;;;;;;11.55;100.00;100805.84;5107504;28;20368;-64
2023/05/13 04:05:36;;;;;;;8.15;7.05;;;;;;;11.51;100.00;100798.19;5107164;28;20035;-68
2023/05/13 04:08:01;;;;;;;11.43;6.85;;;;;;;11.63;100.00;100815.13;5107239;28;20023;-68
2023/05/13 04:10:27;;;;;;;7.65;6.85;;;;;;;11.64;100.00;100815.00;5107168;28;20032;-68
2023/05/13 04:12:52;;;;;;;8.73;6.55;;;;;;;11.67;100.00;100817.44;5108522;28;20032;-68
2023/05/13 04:15:18;;;;;;;12.80;7.00;;;;;;;11.72;100.00;100825.97;5112148;28;20020;-68
2023/05/13 04:17:43;;;;;;;7.90;6.45;;;;;;;11.53;100.00;100798.91;5112076;28;20035;-68
2023/05/13 04:20:09;;;;;;;7.65;6.75;;;;;;;11.70;100.00;100821.72;5109184;28;20027;-68
2023/05/13 04:22:34;;;;;;;7.65;6.72;;;;;;;11.45;100.00;100785.28;5111611;28;20039;-69
2023/05/13 04:25:00;;;;;;;7.00;6.22;;;;;;;11.70;100.00;100837.84;5111700;28;20540;-67
2023/05/13 04:27:29;;;;;;;7.90;6.85;;;;;;;11.63;100.00;100823.19;5109385;28;20020;-68
2023/05/13 04:29:54;;;;;;;9.95;6.22;;;;;;;11.71;100.00;100840.41;5106288;28;20027;-63
2023/05/13 04:32:20;;;;;;;8.15;5.90;;;;;;;11.72;100.00;100846.59;5111657;28;20027;-63
2023/05/13 04:34:49;;;;;;;8.23;6.35;;;;;;;11.73;100.00;100842.97;5111255;28;20148;-62
2023/05/13 04:37:15;;;;;;;8.38;6.70;;;;;;;11.74;100.00;100845.53;5111430;28;20604;-63
2023/05/13 04:39:40;;;;;;;7.80;6.40;;;;;;;11.73;100.00;100845.66;5092973;28;20031;-63
2023/05/13 04:42:06;;;;;;;8.38;6.45;;;;;;;11.74;100.00;100844.66;5111404;28;20035;-63
2023/05/13 04:44:32;;;;;;;9.32;6.70;;;;;;;11.76;100.00;100846.22;5111268;28;20456;-63
2023/05/13 04:46:57;;;;;;;8.48;6.20;;;;;;;11.77;100.00;100844.41;5111352;28;20024;-63
2023/05/13 04:49:23;;;;;;;9.60;6.90;;;;;;;11.76;100.00;100838.16;5111099;28;20134;-64
2023/05/13 04:51:49;;;;;;;6.60;5.85;;;;;;;11.69;100.00;100834.28;5111087;28;20027;-64
2023/05/13 04:54:14;;;;;;;6.75;6.03;;;;;;;11.77;100.00;100845.22;5111069;28;20119;-63
2023/05/13 04:56:40;;;;;;;9.05;7.38;;;;;;;11.80;100.00;100854.88;5110650;28;20035;-63
2023/05/13 04:59:05;;;;;;;7.53;6.35;;;;;;;11.75;100.00;100841.84;5111037;28;20038;-64
2023/05/13 05:01:30;;;;;;;12.02;6.22;;;;;;;11.64;100.00;100828.44;5110743;27;20395;-64
2023/05/13 05:03:57;;;;;;;7.30;5.90;;;;;;;11.79;100.00;100851.34;5110759;28;20035;-64
2023/05/13 05:06:22;;;;;;;6.78;5.90;;;;;;;11.73;100.00;100837.59;5110634;27;20039;-63
2023/05/13 05:08:48;;;;;;;6.68;5.97;;;;;;;11.63;100.00;100816.00;5110740;28;20020;-63
2023/05/13 05:11:14;;;;;;;7.43;6.35;;;;;;;11.67;100.00;100832.72;5110626;28;20214;-64
2023/05/13 05:13:39;;;;;;;8.02;6.30;;;;;;;11.74;100.00;100837.47;5110434;28;20023;-64
2023/05/13 05:16:05;;;;;;;9.27;5.85;;;;;;;11.74;100.00;100839.28;5110742;28;20043;-63
2023/05/13 05:18:30;;;;;;;7.60;6.22;;;;;;;11.78;100.00;100844.28;5110379;28;20082;-63
2023/05/13 05:20:56;;;;;;;6.70;5.53;;;;;;;11.89;100.00;100854.09;5110632;28;20601;-63
2023/05/13 05:23:21;;;;;;;7.10;6.40;;;;;;;11.79;100.00;100839.72;5110804;28;20034;-63
2023/05/13 05:25:46;;;;;;;7.85;6.05;;;;;;;11.85;100.00;100858.03;5109657;28;20089;-63
2023/05/13 05:28:12;;;;;;;9.82;6.15;;;;;;;11.79;100.00;100843.28;5111035;28;20140;-63
2023/05/13 05:30:40;;;;;;;7.50;6.25;;;;;;;11.89;100.00;100856.78;5110810;28;20110;-63
2023/05/13 05:33:06;;;;;;;7.53;6.25;;;;;;;11.80;100.00;100842.28;5111582;28;20381;-63
2023/05/13 05:35:35;;;;;;;8.30;6.30;;;;;;;11.91;100.00;100863.75;5110282;28;20035;-63
2023/05/13 05:38:02;;;;;;;6.68;5.97;;;;;;;11.94;100.00;100866.19;5110885;28;20024;-63
2023/05/13 05:40:30;;;;;;;7.43;6.00;;;;;;;11.93;100.00;100853.69;5095526;28;20023;-64
2023/05/13 05:42:56;;;;;;;8.90;6.18;;;;;;;11.96;100.00;100866.06;5096439;28;20042;-67
2023/05/13 05:45:21;;;;;;;10.05;6.82;;;;;;;11.89;100.00;100854.09;5095890;28;20019;-68
2023/05/13 05:47:47;;;;;;;8.13;6.22;;;;;;;12.00;100.00;100872.88;5106353;28;20024;-63
2023/05/13 05:50:12;;;;;;;7.80;5.90;;;;;;;11.91;100.00;100862.88;5106587;28;20023;-63
2023/05/13 05:52:38;;;;;;;8.20;6.22;;;;;;;11.92;100.00;100853.84;5091257;28;20030;-64
2023/05/13 05:55:05;;;;;;;9.10;5.90;;;;;;;12.04;100.00;100869.78;5109282;28;20028;-63
2023/05/13 05:57:30;;;;;;;9.05;6.50;;;;;;;12.15;100.00;100871.56;5108943;28;20027;-63
2023/05/13 05:59:55;;;;;;;8.23;6.43;;;;;;;12.15;100.00;100882.31;5093182;28;20080;-63
2023/05/13 06:02:21;;;;;;;7.70;5.70;;;;;;;12.14;100.00;100865.34;5109231;28;20038;-62
2023/05/13 06:04:46;;;;;;;9.13;5.95;;;;;;;12.26;100.00;100877.75;5088766;28;20513;-63
2023/05/13 06:07:12;;;;;;;8.85;5.75;;;;;;;12.27;100.00;100883.94;5106136;28;20027;-63
2023/05/13 06:09:37;;;;;;;7.78;5.95;;;;;;;12.21;100.00;100871.88;5106622;28;20023;-63
2023/05/13 06:12:03;;;;;;;12.95;11.68;;;;;;;12.37;100.00;100879.47;5109193;28;20108;-63
2023/05/13 06:14:29;;;;;;;8.07;6.25;;;;;;;12.36;100.00;100870.56;5108807;28;20026;-63
2023/05/13 06:16:54;;;;;;;8.98;6.57;;;;;;;12.41;100.00;100887.16;5105128;28;20019;-63
2023/05/13 06:19:20;;;;;;;8.50;5.75;;;;;;;12.39;100.00;100866.75;5107492;28;20023;-63
2023/05/13 06:21:45;;;;;;;7.07;6.15;;;;;;;12.51;100.00;100882.69;5107373;28;20050;-63
2023/05/13 06:24:10;;;;;;;9.20;5.30;;;;;;;12.48;100.00;100882.94;5101651;28;20055;-63
2023/05/13 06:26:36;;;;;;;7.30;6.45;;;;;;;12.48;100.00;100890.19;5106765;28;20038;-63
2023/05/13 06:29:01;;;;;;;11.63;6.75;;;;;;;12.50;100.00;100890.88;5107814;28;20128;-64
2023/05/13 06:31:27;;;;;;;8.00;6.03;;;;;;;12.53;100.00;100894.19;5093781;28;20030;-63
2023/05/13 06:33:53;;;;;;;7.70;5.90;;;;;;;12.57;100.00;100895.59;5103525;28;20036;-64
2023/05/13 06:36:18;;;;;;;7.80;5.65;;;;;;;12.64;100.00;100890.56;5104079;28;20026;-64
2023/05/13 06:38:43;;;;;;;6.88;5.90;;;;;;;12.69;100.00;100894.53;5098031;28;20032;-64
2023/05/13 06:41:09;;;;;;;7.75;5.72;;;;;;;12.71;100.00;100889.84;5107489;28;20027;-63
2023/05/13 06:43:34;;;;;;;6.55;5.05;;;;;;;12.73;100.00;100887.03;5104091;28;20042;-63
2023/05/13 06:46:00;;;;;;;6.28;5.13;;;;;;;12.77;100.00;100885.81;5092033;28;20428;-63
2023/05/13 06:48:26;;;;;;;6.35;5.30;;;;;;;12.77;100.00;100880.41;5106329;28;20063;-62
2023/05/13 06:50:51;;;;;;;6.68;4.88;;;;;;;12.82;100.00;100883.53;5106862;28;20031;-62
2023/05/13 06:53:17;;;;;;;6.10;5.47;;;;;;;12.86;100.00;100895.75;5106489;28;20126;-63
2023/05/13 06:55:42;;;;;;;6.40;5.55;;;;;;;12.88;100.00;100891.09;5103971;28;20035;-63
2023/05/13 06:58:08;;;;;;;8.45;5.68;;;;;;;12.96;99.04;100883.19;5107411;28;20072;-63
2023/05/13 07:00:39;;;;;;;5.90;5.30;;;;;;;12.98;99.61;100889.28;5105125;28;20054;-63
2023/05/13 07:03:06;;;;;;;6.70;5.25;;;;;;;13.00;99.95;100872.03;5101075;28;20027;-64
2023/05/13 07:05:33;;;;;;;7.55;5.55;;;;;;;13.09;99.11;100875.75;5087548;28;20047;-63
2023/05/13 07:07:58;;;;;;;6.80;5.50;;;;;;;13.12;98.94;100875.47;5106436;28;20357;-64
2023/05/13 07:10:24;;;;;;;8.43;5.63;;;;;;;13.19;98.49;100880.16;5097658;28;20054;-62
2023/05/13 07:12:49;;;;;;;7.30;5.72;;;;;;;13.22;99.32;100882.59;5093045;28;20022;-68
2023/05/13 07:15:15;;;;;;;6.97;5.65;;;;;;;13.17;99.19;100862.44;5105632;28;20130;-68
2023/05/13 07:17:41;;;;;;;9.77;5.82;;;;;;;13.29;99.12;100864.88;5106352;28;20105;-68
2023/05/13 07:20:07;;;;;;;10.07;6.57;;;;;;;13.43;98.14;100874.41;5096415;28;20023;-68
2023/05/13 07:22:33;;;;;;;10.75;5.82;;;;;;;13.53;98.77;100862.66;5105848;28;20023;-68
2023/05/13 07:24:58;;;;;;;9.40;5.28;;;;;;;13.56;97.21;100848.03;5107406;28;20047;-69
2023/05/13 07:27:24;;;;;;;6.28;5.68;;;;;;;13.77;96.16;100861.41;5107387;28;20432;-68
2023/05/13 07:29:49;;;;;;;7.18;5.65;;;;;;;13.88;96.29;100863.94;5107990;28;20077;-68
2023/05/13 07:32:15;;;;;;;8.25;5.30;;;;;;;14.05;94.01;100869.47;5108442;28;20031;-69
2023/05/13 07:34:40;;;;;;;7.30;5.70;;;;;;;14.06;93.69;100864.94;5108200;28;20050;-68
2023/05/13 07:37:06;;;;;;;9.23;5.72;;;;;;;14.19;91.52;100874.41;5108654;27;20027;-69
2023/05/13 07:39:31;;;;;;;10.88;7.22;;;;;;;14.28;91.29;100878.97;5108508;28;20072;-68
2023/05/13 07:41:57;;;;;;;7.95;5.47;;;;;;;14.21;91.64;100871.56;5108570;28;20644;-68
2023/05/13 07:44:23;;;;;;;7.10;6.40;;;;;;;14.29;91.68;100880.72;5101634;28;20088;-69
2023/05/13 07:46:50;;;;;;;7.65;5.45;;;;;;;14.35;90.37;100882.78;5107946;28;20025;-68
2023/05/13 07:49:15;;;;;;;7.93;4.72;;;;;;;14.49;88.27;100890.47;5107799;28;20030;-62
2023/05/13 07:51:41;;;;;;;5.30;4.80;;;;;;;14.51;89.10;100884.91;5108104;28;20487;-63
2023/05/13 07:54:07;;;;;;;5.90;4.82;;;;;;;14.59;89.00;100888.59;5108484;28;20072;-63
2023/05/13 07:56:33;;;;;;;9.65;5.20;;;;;;;14.64;84.59;100896.25;5107874;28;20096;-62
2023/05/13 07:58:58;;;;;;;5.03;4.45;;;;;;;14.66;84.57;100892.41;5108264;28;20020;-63
2023/05/13 08:01:24;;;;;;;8.18;4.72;;;;;;;14.62;83.35;100880.19;5108135;28;20039;-63
2023/05/13 08:03:49;;;;;;;6.38;4.90;;;;;;;14.65;81.60;100885.31;5101915;28;20023;-63
2023/05/13 08:06:15;;;;;;;6.10;4.25;;;;;;;14.76;81.33;100893.22;5107722;28;20447;-63
2023/05/13 08:08:40;;;;;;;7.82;4.82;;;;;;;14.75;80.32;100886.13;5092336;28;20028;-63
2023/05/13 08:11:06;;;;;;;5.38;4.13;;;;;;;14.89;80.15;100906.38;5107807;28;20549;-63
2023/05/13 08:13:31;;;;;;;8.90;3.80;;;;;;;14.95;79.95;100906.66;5107825;28;20035;-63
2023/05/13 08:16:01;;;;;;;7.60;4.32;;;;;;;14.89;78.86;100884.75;5108060;28;20059;-64
2023/05/13 08:18:26;;;;;;;9.45;4.75;;;;;;;15.03;79.71;100901.34;5105797;28;20043;-63
2023/05/13 08:20:52;;;;;;;6.53;4.32;;;;;;;15.09;79.20;100908.84;5107660;28;20055;-62
2023/05/13 08:23:17;;;;;;;7.50;4.85;;;;;;;15.13;78.38;100909.41;5093789;28;20035;-64
2023/05/13 08:25:42;;;;;;;5.78;4.55;;;;;;;15.19;76.18;100903.41;5107500;28;20075;-63
2023/05/13 08:28:08;;;;;;;7.30;4.35;;;;;;;15.24;74.38;100909.22;5107378;28;20028;-63
2023/05/13 08:30:33;;;;;;;7.15;3.83;;;;;;;15.25;74.14;100905.53;5107350;28;20078;-63
2023/05/13 08:32:59;;;;;;;5.65;3.90;;;;;;;15.31;73.38;100911.16;5107499;28;20024;-68
2023/05/13 08:35:25;;;;;;;6.25;4.15;;;;;;;15.16;73.33;100874.81;5107125;28;20055;-69
2023/05/13 08:37:50;;;;;;;7.30;4.47;;;;;;;15.40;73.88;100920.25;5107480;28;20020;-68
2023/05/13 08:40:16;;;;;;;5.32;4.20;;;;;;;15.33;74.94;100906.47;5107607;28;20028;-68
2023/05/13 08:42:42;;;;;;;5.45;4.25;;;;;;;15.44;74.57;100916.25;5107325;28;20035;-68
2023/05/13 08:45:09;;;;;;;5.18;4.25;;;;;;;15.43;74.69;100914.56;5107860;28;20028;-68
2023/05/13 08:47:54;;;;;;;6.53;4.47;;;;;;;15.54;73.72;100917.03;5107556;28;20031;-68
2023/05/13 08:50:21;;;;;;;6.18;4.15;;;;;;;15.55;74.91;100921.47;5108066;28;20039;-68
2023/05/13 08:52:48;;;;;;;5.68;4.10;;;;;;;15.59;75.89;100921.00;5107918;28;20051;-68
2023/05/13 08:55:15;;;;;;;9.25;4.32;;;;;;;15.68;73.73;100938.16;5108074;28;20020;-68
2023/05/13 08:57:40;;;;;;;6.18;4.70;;;;;;;15.60;73.87;100916.44;5107433;28;20425;-68
2023/05/13 09:00:06;;;;;;;4.20;3.80;;;;;;;15.75;71.64;100933.84;5110525;28;20072;-68
2023/05/13 09:02:31;;;;;;;6.63;4.03;;;;;;;15.75;72.60;100934.72;5100823;28;20510;-68
2023/05/13 09:05:02;;;;;;;7.03;4.10;;;;;;;15.79;73.38;100938.81;5111472;28;20152;-68
2023/05/13 09:07:31;;;;;;;7.07;3.80;;;;;;;15.86;73.71;100936.31;5111411;28;20030;-68
2023/05/13 09:09:56;;;;;;;5.07;4.18;;;;;;;15.88;71.30;100928.91;5111466;28;20539;-68
2023/05/13 09:12:40;;;;;;;7.72;4.22;;;;;;;15.93;70.08;100933.88;5111609;28;20118;-68
2023/05/13 09:15:11;;;;;;;5.63;4.40;;;;;;;15.77;70.90;100916.44;5110654;28;20807;-69
2023/05/13 09:17:44;;;;;;;4.82;3.45;;;;;;;15.76;71.29;100903.94;5111004;28;20035;-68
2023/05/13 09:20:11;;;;;;;6.63;4.25;;;;;;;15.93;71.30;100928.47;5111497;28;20092;-68
2023/05/13 09:22:47;;;;;;;4.63;3.70;;;;;;;16.00;71.56;100924.13;5111253;28;20102;-68
2023/05/13 09:25:15;;;;;;;4.95;3.53;;;;;;;16.04;71.01;100933.63;5109045;28;20117;-68
2023/05/13 09:27:47;;;;;;;6.50;3.88;;;;;;;16.11;68.00;100921.16;5110720;28;20024;-68
2023/05/13 09:30:12;;;;;;;6.68;3.80;;;;;;;16.13;69.33;100921.88;5110831;28;20024;-62
2023/05/13 09:32:39;;;;;;;5.05;3.50;;;;;;;16.07;68.91;100927.91;5110796;28;20181;-62
2023/05/13 09:35:10;;;;;;;6.28;3.63;;;;;;;16.19;67.82;100916.72;5092389;28;20031;-63
2023/05/13 09:37:36;;;;;;;10.57;3.95;;;;;;;16.09;68.24;100915.91;5110242;28;20031;-62
2023/05/13 09:40:02;;;;;;;5.32;4.10;;;;;;;16.11;67.64;100922.03;5110171;28;20441;-62
2023/05/13 09:42:28;;;;;;;5.10;3.47;;;;;;;16.16;67.85;100919.72;5104414;28;20476;-62
2023/05/13 09:44:54;;;;;;;5.15;3.70;;;;;;;15.90;68.77;100884.47;5090515;28;20035;-62
2023/05/13 09:47:20;;;;;;;4.30;3.53;;;;;;;16.13;69.22;100921.88;5097192;28;20043;-68
2023/05/13 09:49:56;;;;;;;8.27;4.07;;;;;;;16.10;68.68;100924.91;5099487;28;20028;-68
2023/05/13 09:52:22;;;;;;;7.55;3.97;;;;;;;16.08;69.76;100919.63;5109761;28;20038;-69
2023/05/13 09:54:47;;;;;;;8.18;3.55;;;;;;;15.87;70.18;100886.66;5109038;28;20039;-68
2023/05/13 09:57:13;;;;;;;4.32;3.92;;;;;;;16.02;70.44;100922.94;5109431;28;20065;-69
2023/05/13 09:59:39;;;;;;;5.45;4.10;;;;;;;16.00;70.53;100927.69;5109570;28;20060;-68
2023/05/13 10:02:06;;;;;;;6.75;4.47;;;;;;;15.99;71.53;100925.13;5109950;28;20422;-68
2023/05/13 10:04:32;;;;;;;7.05;4.35;;;;;;;15.96;71.98;100930.84;5109482;28;20098;-68
2023/05/13 10:07:00;;;;;;;7.82;4.07;;;;;;;15.94;72.01;100928.31;5109731;28;20061;-69
2023/05/13 10:09:29;;;;;;;4.85;4.03;;;;;;;15.93;71.54;100919.31;5109802;28;20030;-69
2023/05/13 10:11:56;;;;;;;6.38;4.22;;;;;;;15.96;71.74;100922.75;5108874;28;20047;-69
2023/05/13 10:14:23;;;;;;;6.20;3.95;;;;;;;15.89;72.24;100914.38;5109456;28;20042;-68
2023/05/13 10:16:50;;;;;;;5.75;4.07;;;;;;;15.89;72.17;100909.81;5109354;27;20468;-67
2023/05/13 10:19:16;;;;;;;10.52;4.10;;;;;;;16.06;69.20;100928.91;5101876;28;20055;-67
2023/05/13 10:21:42;;;;;;;8.50;3.78;;;;;;;16.06;68.66;100932.50;5109061;28;20062;-68
2023/05/13 10:24:08;;;;;;;5.60;4.10;;;;;;;16.03;68.51;100927.38;5106710;28;20067;-68
2023/05/13 10:26:34;;;;;;;6.72;4.28;;;;;;;16.07;68.28;100927.91;5108737;28;20103;-68
2023/05/13 10:29:02;;;;;;;6.10;3.42;;;;;;;16.02;69.27;100914.84;5109486;28;20053;-68
2023/05/13 10:31:29;;;;;;;7.07;4.07;;;;;;;16.14;69.68;100924.44;5109143;28;20028;-68
2023/05/13 10:33:54;;;;;;;6.38;3.97;;;;;;;16.20;70.05;100922.94;5108856;28;20026;-69
2023/05/13 10:36:41;;;;;;;8.00;4.53;;;;;;;16.14;69.56;100910.91;5094154;28;20414;-68
2023/05/13 10:39:51;;;;;;;6.25;4.40;;;;;;;16.24;69.36;100935.16;5109079;28;20015;-68
2023/05/13 10:42:41;;;;;;;7.80;4.22;;;;;;;16.21;69.04;100927.34;5108765;28;20024;-68
2023/05/13 10:45:08;;;;;;;8.13;4.50;;;;;;;16.21;68.62;100933.63;5069374;28;20476;-68
2023/05/13 10:47:34;;;;;;;5.07;4.22;;;;;;;16.23;68.48;100928.06;5108769;28;20055;-69
2023/05/13 10:50:04;;;;;;;7.25;4.18;;;;;;;16.27;67.73;100935.72;5109010;28;20102;-68
2023/05/13 10:52:46;;;;;;;6.22;4.10;;;;;;;16.34;66.91;100944.91;5107723;28;20030;-69
2023/05/13 10:55:18;;;;;;;6.05;3.97;;;;;;;16.39;66.84;100939.88;5109192;28;20031;-68
2023/05/13 10:58:13;;;;;;;7.60;4.07;;;;;;;16.47;65.81;100936.44;5106253;28;20540;-68
2023/05/13 11:00:43;;;;;;;6.45;4.63;;;;;;;16.50;65.83;100930.66;5106478;28;20106;-68
2023/05/13 11:03:10;;;;;;;7.25;5.25;;;;;;;16.58;65.09;100933.47;5106676;28;20076;-68
2023/05/13 11:05:57;;;;;;;6.15;4.90;;;;;;;16.50;64.46;100901.75;5107981;28;20070;-67
2023/05/13 11:08:38;;;;;;;6.07;4.25;;;;;;;16.59;64.83;100918.91;5108384;28;20046;-68
2023/05/13 11:11:25;;;;;;;7.43;4.60;;;;;;;16.67;64.65;100924.38;5108361;28;20027;-68
2023/05/13 11:13:55;;;;;;;9.77;5.40;;;;;;;16.70;65.10;100924.91;5107942;28;20504;-68
2023/05/13 11:16:22;;;;;;;10.50;5.60;;;;;;;16.72;64.06;100916.63;5107949;28;20118;-68
2023/05/13 11:18:50;;;;;;;6.80;4.38;;;;;;;16.68;63.18;100902.56;5105029;28;20019;-68